createdAt,value
2022-07-29T00:02:55.650Z,61.47
2022-07-29T00:07:53.391Z,61.71
2022-07-29T00:12:50.616Z,61.83
2022-07-29T00:17:49.185Z,61.67
2022-07-29T00:22:46.630Z,61.88
2022-07-29T00:27:43.741Z,61.69
2022-07-29T00:32:43.626Z,60.97
2022-07-29T00:37:42.086Z,57.73
2022-07-29T00:42:47.240Z,56.88
2022-07-29T00:47:44.606Z,55.11
2022-07-29T00:52:44.213Z,54.86
2022-07-29T00:57:42.643Z,55.25
2022-07-29T01:02:40.411Z,54.43
2022-07-29T01:07:39.684Z,55.09
2022-07-29T01:12:47.628Z,56.58
2022-07-29T01:17:53.447Z,58.52
2022-07-29T01:23:34.587Z,59.46
2022-07-29T01:29:07.414Z,59.37
2022-07-29T01:34:25.044Z,59.31
2022-07-29T01:39:28.202Z,58.37
2022-07-29T01:44:33.416Z,58.21
2022-07-29T01:49:41.262Z,58.87
2022-07-29T01:54:53.044Z,59.63
2022-07-29T01:59:52.853Z,58.20
2022-07-29T02:04:51.459Z,57.71
2022-07-29T02:09:52.523Z,57.68
2022-07-29T02:14:53.850Z,56.50
2022-07-29T02:19:52.789Z,56.91
2022-07-29T02:24:52.263Z,57.60
2022-07-29T02:29:54.288Z,57.34
2022-07-29T02:34:57.219Z,58.89
2022-07-29T02:39:56.322Z,60.29
2022-07-29T02:44:56.587Z,61.59
2022-07-29T02:49:58.778Z,62.68
2022-07-29T02:55:03.080Z,64.01
2022-07-29T03:00:05.582Z,65.58
2022-07-29T03:05:14.301Z,65.99
2022-07-29T03:10:13.690Z,65.88
2022-07-29T03:15:12.355Z,64.81
2022-07-29T03:20:12.425Z,63.33
2022-07-29T03:25:12.677Z,61.28
2022-07-29T03:30:14.762Z,60.35
2022-07-29T03:35:27.378Z,59.71
2022-07-29T03:40:28.731Z,58.14
2022-07-29T03:45:30.218Z,56.66
2022-07-29T03:50:31.679Z,55.36
2022-07-29T03:55:33.966Z,54.84
2022-07-29T04:00:34.061Z,54.94
2022-07-29T04:05:31.078Z,54.37
2022-07-29T04:10:32.073Z,54.94
2022-07-29T04:15:32.110Z,56.37
2022-07-29T04:20:29.274Z,56.85
2022-07-29T04:25:26.310Z,54.50
2022-07-29T04:30:34.229Z,50.96
2022-07-29T04:35:38.035Z,48.68
2022-07-29T04:40:42.276Z,48.83
2022-07-29T04:45:43.305Z,50.07
2022-07-29T04:50:41.492Z,50.51
2022-07-29T04:55:39.248Z,50.45
2022-07-29T05:00:38.189Z,50.23
2022-07-29T05:05:39.980Z,49.50
2022-07-29T05:10:38.554Z,49.70
2022-07-29T05:15:36.233Z,49.64
2022-07-29T05:20:34.792Z,50.26
2022-07-29T05:25:43.703Z,50.80
2022-07-29T05:30:47.665Z,49.74
2022-07-29T05:35:47.242Z,47.86
2022-07-29T05:41:10.914Z,43.40
2022-07-29T05:46:17.384Z,40.67
2022-07-29T05:51:14.683Z,38.44
2022-07-29T05:56:17.070Z,35.90
2022-07-29T06:01:14.257Z,33.28
2022-07-29T06:06:11.528Z,29.96
2022-07-29T06:11:09.085Z,27.54
2022-07-29T06:16:09.189Z,26.72
2022-07-29T06:21:09.565Z,27.55
2022-07-29T06:26:09.298Z,27.25
2022-07-29T06:31:10.294Z,27.83
2022-07-29T06:36:11.511Z,28.24
2022-07-29T06:41:16.332Z,28.08
2022-07-29T06:46:17.973Z,25.63
2022-07-29T06:51:22.918Z,25.51
2022-07-29T06:56:20.624Z,24.42
2022-07-29T07:01:18.645Z,22.31
2022-07-29T07:06:16.029Z,20.22
2022-07-29T07:11:15.315Z,19.58
2022-07-29T07:16:15.954Z,19.81
2022-07-29T07:21:19.169Z,19.24
2022-07-29T07:26:16.853Z,19.60
2022-07-29T07:31:14.701Z,18.30
2022-07-29T07:36:12.217Z,16.72
2022-07-29T07:41:12.745Z,17.16
2022-07-29T07:46:13.368Z,16.70
2022-07-29T11:41:27.214Z,23.35
2022-07-29T11:46:45.604Z,24.86
2022-07-29T11:51:50.540Z,25.43
2022-07-29T11:56:51.953Z,25.20
2022-07-29T12:02:18.528Z,25.39
2022-07-29T12:07:32.658Z,25.18
2022-07-29T12:12:33.499Z,25.31
2022-07-29T12:17:34.691Z,25.50
2022-07-29T12:22:48.211Z,24.73
2022-07-29T12:27:46.186Z,26.26
2022-07-29T12:32:47.853Z,25.46
2022-07-29T12:37:48.549Z,25.53
2022-07-29T12:43:09.663Z,26.23
2022-07-29T12:48:09.040Z,25.73
2022-07-29T12:53:11.846Z,25.51
2022-07-29T12:58:09.600Z,25.80
2022-07-29T13:03:08.658Z,25.17
2022-07-29T13:08:21.924Z,25.38
2022-07-29T13:13:23.478Z,25.34
2022-07-29T13:18:30.092Z,25.69
2022-07-29T13:23:29.185Z,25.51
2022-07-29T13:28:29.071Z,25.47
2022-07-29T13:33:26.192Z,25.20
2022-07-29T13:38:31.336Z,25.48
2022-07-29T13:44:00.607Z,25.53
2022-07-29T13:48:57.773Z,25.12
2022-07-29T13:53:54.934Z,25.57
2022-07-29T13:58:52.618Z,25.73
2022-07-29T14:03:50.715Z,25.45
2022-07-29T14:09:01.023Z,25.39
2022-07-29T14:14:00.481Z,25.24
2022-07-29T14:18:57.569Z,25.57
2022-07-29T14:23:55.117Z,25.66
2022-07-29T14:29:03.151Z,25.48
2022-07-29T14:34:03.418Z,25.96
2022-07-29T14:39:00.714Z,25.82
2022-07-29T14:43:58.262Z,26.40
2022-07-29T14:49:26.750Z,26.40
2022-07-29T14:54:24.011Z,26.38
2022-07-29T14:59:21.479Z,26.05
2022-07-29T15:04:24.688Z,25.34
2022-07-29T15:09:30.068Z,25.46
2022-07-29T15:14:30.549Z,25.70
2022-07-29T15:19:34.034Z,26.04
2022-07-29T15:24:33.563Z,25.96
2022-07-29T15:29:33.383Z,25.93
2022-07-29T15:34:31.466Z,25.67
2022-07-29T15:40:30.842Z,26.30
2022-07-29T15:45:31.943Z,25.90
2022-07-29T15:50:39.307Z,26.37
2022-07-29T15:55:36.700Z,26.82
2022-07-29T16:00:34.345Z,26.74
2022-07-29T16:05:33.559Z,26.62
2022-07-29T16:10:33.697Z,26.59
2022-07-29T16:15:37.391Z,26.97
2022-07-29T16:20:39.240Z,26.96
2022-07-29T16:25:58.537Z,26.90
2022-07-29T16:31:11.092Z,27.45
2022-07-29T16:36:18.575Z,27.85
2022-07-29T16:41:16.576Z,28.20
2022-07-29T16:46:19.006Z,28.29
2022-07-29T16:51:21.200Z,28.57
2022-07-29T16:56:20.533Z,28.37
2022-07-29T17:01:39.842Z,27.94
2022-07-29T17:06:46.010Z,28.33
2022-07-29T17:11:53.201Z,27.64
2022-07-29T17:17:38.831Z,27.67
2022-07-29T17:22:49.090Z,28.30
2022-07-29T17:27:46.535Z,28.77
2022-07-29T17:32:56.405Z,29.09
2022-07-29T17:37:58.601Z,29.68
2022-07-29T17:42:59.065Z,29.31
2022-07-29T17:47:58.063Z,29.89
2022-07-29T17:53:05.444Z,29.99
2022-07-29T17:58:16.139Z,29.98
2022-07-29T18:03:14.346Z,30.20
2022-07-29T18:08:37.202Z,30.67
2022-07-29T18:13:34.460Z,30.74
2022-07-29T18:18:32.347Z,31.12
2022-07-29T18:23:35.154Z,31.79
2022-07-29T18:28:36.832Z,32.45
2022-07-29T18:33:40.193Z,33.29
2022-07-29T18:38:38.433Z,33.54
2022-07-29T18:43:40.835Z,33.74
2022-07-29T18:48:38.259Z,34.64
2022-07-29T18:53:36.601Z,34.68
2022-07-29T18:58:39.563Z,34.82
2022-07-29T19:03:37.659Z,34.25
2022-07-29T19:08:44.755Z,34.00
2022-07-29T19:13:43.356Z,34.15
2022-07-29T19:19:00.378Z,34.51
2022-07-29T19:24:07.375Z,34.53
2022-07-29T19:29:07.783Z,34.80
2022-07-29T19:34:08.330Z,34.52
2022-07-29T19:39:09.012Z,33.88
2022-07-29T19:44:10.790Z,33.62
2022-07-29T19:49:20.675Z,33.10
2022-07-29T19:54:18.293Z,32.59
2022-07-29T19:59:30.090Z,32.24
2022-07-29T20:04:56.702Z,32.04
2022-07-29T20:10:01.335Z,31.86
2022-07-29T20:15:00.708Z,31.74
2022-07-29T20:19:59.457Z,31.72
2022-07-29T20:24:57.188Z,31.66
2022-07-29T20:30:04.095Z,31.59
2022-07-29T20:35:03.552Z,31.93
2022-07-29T20:40:04.327Z,31.68
2022-07-29T20:45:37.223Z,32.25
2022-07-29T20:50:45.840Z,31.96
2022-07-29T20:55:43.577Z,32.44
2022-07-29T21:00:41.458Z,32.72
2022-07-29T21:05:40.103Z,32.79
2022-07-29T21:10:48.277Z,33.45
2022-07-29T21:15:51.017Z,33.66
2022-07-29T21:20:52.284Z,33.18
2022-07-29T21:25:49.568Z,33.36
2022-07-29T21:30:46.516Z,33.63
2022-07-29T21:36:07.331Z,33.17
2022-07-29T21:41:07.246Z,33.15
2022-07-29T21:46:11.745Z,33.42
2022-07-29T21:51:10.100Z,33.78
2022-07-29T21:56:07.590Z,33.81
2022-07-29T22:01:08.624Z,33.32
2022-07-29T22:06:17.861Z,34.64
2022-07-29T22:11:16.289Z,36.34
2022-07-29T22:16:14.430Z,36.50
2022-07-29T22:21:13.383Z,36.20
2022-07-29T22:26:11.273Z,36.42
2022-07-29T22:31:09.347Z,36.75
2022-07-29T22:36:10.771Z,37.42
2022-07-29T22:41:09.160Z,38.06
2022-07-29T22:46:08.946Z,39.03
2022-07-29T22:51:06.415Z,39.52
2022-07-29T22:56:03.942Z,39.69
2022-07-29T23:01:02.129Z,40.61
2022-07-29T23:06:03.254Z,41.39
2022-07-29T23:11:01.211Z,42.23
2022-07-29T23:15:59.212Z,42.73
2022-07-29T23:20:58.059Z,43.10
2022-07-29T23:25:55.070Z,43.72
2022-07-29T23:30:52.215Z,44.25
2022-07-29T23:35:51.412Z,44.63
2022-07-29T23:40:49.896Z,44.65
2022-07-29T23:45:50.381Z,44.90
2022-07-29T23:50:51.352Z,45.29
2022-07-29T23:55:49.576Z,45.53
